ROMMA est une association bénévole à but non lucratif. Votre soutien est indispensable : ADHERER à ROMMA ou FAIRE un DON

Crempigny - (74, Haute-Savoie)

Albanais-Montagne des Princes (500 m)   Longitude: 05° 54' 5" E   Latitude: 45° 57' 0" N Station partenaire n°10
 

Détail journalier du     <<     >>

Température Precipitation Humidité Pression Vent Dir Rafale Dir. rafale Ensol. 20 cm au dessus du sol
Heure (°C) (mm) (%) (hPa) (km/h) (km/h) (min) (°C)
01:00 6.2098101303NO06.1
02:00 5.909810131NO3NO05.6
03:00 6.109810131NO5NO05.6
04:00 5.609910121NO5NO05.6
05:00 5.4098101202NO05.6
06:00 5.4099101203NO05.6
07:00 4.909810121NO5NO04.4
08:00 4.9099101203NO05.0
09:00 4.909910121NO5NO05.0
10:00 5.409910121NO5NO06.7
11:00 6.209910123NO10OSO08.3
12:00 6.409910112SSO10E09.4
13:00 8.209710101SSE5SSO4511.7
14:00 9.109110104SSE13SO2510.6
15:00 10.108910092S8ENE1011.1
16:00 9.308910092SE6SE08.9
17:00 8.209010083ENE10NO107.8
18:00 7.809010084NO10NNO06.7
19:00 7.309210072NO6NNO06.7
20:00 7.409210073NNO6NNO06.7
21:00 6.309410062NNO6NNO05.6
22:00 6.309510062SO6NNO05.6
23:00 6.409510052ONO6O05.6
minuit 5.609510041ONO6SSO04.4

Graphique du 26-11-2019

 

Serveur OMMA